« Back
NWS Peachtree City, Ga » Text Product » MCN Terminal Aerodrome Forecast


Printer-friendly Version
Current Version              Previous Versions:   1  2  3  4  5  6  7  8  9  

Terminal Aerodrome Forecast

471
FTUS42 KFFC 292249 AAA
TAFMCN
TAF AMD
KMCN 292249Z 2923/3018 08004KT P6SM VCSH SCT030 BKN120
     FM300100 11003KT P6SM OVC040
     FM300700 00000KT 5SM BR OVC025
     FM301300 06005KT 6SM SHRA BKN015=



USA.gov is the U.S. government's official web portal to all federal, state and local government web resources and services.